Time;durP1;ratioP1;P1;durP2;ratioP2;P2;SDS_P1;SDS_P2;PMS_P1;PMS_P2;Temp;Humidity;BMP_temperature;BMP_pressure;BME280_temperature;BME280_humidity;BME280_pressure;Samples;Min_cycle;Max_cycle;Signal;HPM_P1;HPM_P2
2021/06/01 00:00:51;;;;;;;9.80;6.10;;;;;;;7.89;52.42;100498.47;153983;1093;103127;-79
2021/06/01 00:03:55;;;;;;;11.47;7.23;;;;;;;7.83;52.34;100496.30;153993;1093;103164;-82
2021/06/01 00:06:59;;;;;;;9.60;6.10;;;;;;;7.79;51.82;100493.06;154030;1101;103139;-79
2021/06/01 00:10:04;;;;;;;9.37;6.23;;;;;;;7.74;52.91;100495.28;153968;1101;103231;-79
2021/06/01 00:13:08;;;;;;;9.03;5.97;;;;;;;7.70;52.73;100487.69;154015;1093;103199;-79
2021/06/01 00:16:13;;;;;;;10.80;6.67;;;;;;;7.63;52.19;100490.02;153947;1101;103309;-80
2021/06/01 00:19:17;;;;;;;10.30;6.87;;;;;;;7.59;52.85;100491.25;154062;1093;103202;-83
2021/06/01 00:22:21;;;;;;;10.07;6.60;;;;;;;7.55;52.27;100490.66;153974;1101;103131;-82
2021/06/01 00:25:24;;;;;;;9.27;6.70;;;;;;;7.53;52.86;100481.16;153924;1101;103164;-77
2021/06/01 00:28:28;;;;;;;10.07;6.03;;;;;;;7.50;53.16;100490.20;153970;1093;103199;-77
2021/06/01 00:31:32;;;;;;;9.60;6.00;;;;;;;7.45;53.01;100487.94;153957;1095;103210;-77
2021/06/01 00:34:36;;;;;;;9.57;6.37;;;;;;;7.46;52.39;100480.80;154006;1101;103149;-76
2021/06/01 00:37:39;;;;;;;9.30;6.10;;;;;;;7.45;53.24;100490.59;153951;1101;103199;-77
2021/06/01 00:40:43;;;;;;;10.40;6.27;;;;;;;7.44;52.92;100493.36;153998;1093;103198;-78
2021/06/01 00:43:47;;;;;;;9.90;6.17;;;;;;;7.43;52.61;100491.70;153995;1096;103187;-78
2021/06/01 00:46:50;;;;;;;9.55;6.65;;;;;;;7.41;52.57;100489.16;153977;1096;103266;-77
2021/06/01 00:49:54;;;;;;;11.73;6.77;;;;;;;7.38;52.95;100483.26;153989;1093;103200;-79
2021/06/01 00:53:00;;;;;;;10.37;6.47;;;;;;;7.39;53.19;100480.48;153985;1096;103130;-79
2021/06/01 00:56:05;;;;;;;10.17;6.17;;;;;;;7.37;52.72;100479.77;154014;1094;103145;-77
2021/06/01 00:59:09;;;;;;;9.73;6.47;;;;;;;7.34;53.37;100472.05;153977;1096;103207;-77
2021/06/01 01:02:12;;;;;;;10.30;6.77;;;;;;;7.32;53.38;100476.64;153959;1094;103271;-77
2021/06/01 01:05:18;;;;;;;11.33;7.13;;;;;;;7.30;53.54;100473.27;153992;1093;103126;-78
2021/06/01 01:08:46;;;;;;;14.00;7.97;;;;;;;7.28;53.30;100475.22;154020;1096;103112;-76
2021/06/01 01:12:00;;;;;;;20.80;10.93;;;;;;;7.25;53.29;100478.94;153956;1101;103133;-75
2021/06/01 01:15:08;;;;;;;16.73;9.40;;;;;;;7.22;53.02;100478.38;153974;1093;103117;-76
2021/06/01 01:18:17;;;;;;;14.10;7.83;;;;;;;7.20;53.56;100477.66;153971;1101;103180;-77
2021/06/01 01:21:25;;;;;;;16.20;8.90;;;;;;;7.18;53.25;100471.61;153948;1101;103597;-78
2021/06/01 01:24:41;;;;;;;14.77;8.73;;;;;;;7.16;53.68;100474.41;153947;1101;103206;-76
2021/06/01 01:28:04;;;;;;;17.57;9.70;;;;;;;7.14;53.46;100470.18;154043;1101;104255;-76
2021/06/01 01:31:14;;;;;;;14.67;8.50;;;;;;;7.14;53.39;100470.18;154007;1095;103139;-76
2021/06/01 01:34:19;;;;;;;11.30;7.73;;;;;;;7.04;53.82;100470.95;153974;1096;103301;-77
2021/06/01 01:37:24;;;;;;;11.87;7.17;;;;;;;7.01;53.62;100465.89;153999;1101;103190;-79
2021/06/01 01:40:31;;;;;;;10.03;6.70;;;;;;;7.03;53.88;100465.77;153939;1094;103134;-76
2021/06/01 01:43:35;;;;;;;11.63;6.90;;;;;;;7.09;53.39;100465.26;153974;1101;103131;-76
2021/06/01 01:46:56;;;;;;;10.70;7.07;;;;;;;7.14;54.13;100449.81;153996;1093;103183;-77
2021/06/01 01:50:02;;;;;;;10.10;6.70;;;;;;;7.19;53.89;100452.91;153916;1101;103190;-80
2021/06/01 01:53:06;;;;;;;10.40;6.50;;;;;;;7.24;54.17;100457.86;153980;1101;103181;-79
2021/06/01 01:56:11;;;;;;;9.80;6.40;;;;;;;7.30;53.71;100446.73;153918;1101;103128;-74
2021/06/01 01:59:16;;;;;;;9.77;6.47;;;;;;;7.37;54.08;100455.88;153981;1101;103200;-75
2021/06/01 02:02:21;;;;;;;10.60;7.30;;;;;;;7.46;53.97;100449.77;154006;1093;103105;-76
2021/06/01 02:05:25;;;;;;;12.30;7.37;;;;;;;7.53;54.40;100450.13;153993;1101;103278;-77
2021/06/01 02:08:29;;;;;;;13.70;8.97;;;;;;;7.58;54.10;100452.38;154010;1094;103227;-76
2021/06/01 02:11:33;;;;;;;13.90;7.47;;;;;;;7.64;54.67;100451.86;153977;1094;103201;-75
2021/06/01 02:14:36;;;;;;;15.67;9.73;;;;;;;7.69;54.98;100444.35;153978;1101;103201;-75
2021/06/01 02:17:40;;;;;;;14.77;8.17;;;;;;;7.75;54.91;100443.83;153965;1101;104052;-76
2021/06/01 02:20:46;;;;;;;11.70;7.27;;;;;;;7.77;54.34;100439.22;153981;1101;103259;-77
2021/06/01 02:23:58;;;;;;;11.60;7.53;;;;;;;7.80;54.83;100446.95;153959;1101;103158;-80
2021/06/01 02:27:13;;;;;;;12.17;7.80;;;;;;;7.84;55.43;100453.67;153968;1093;103132;-76
2021/06/01 02:30:19;;;;;;;11.47;7.50;;;;;;;7.93;55.23;100440.57;153955;1093;103117;-75
2021/06/01 02:33:24;;;;;;;12.10;7.88;;;;;;;8.00;55.39;100442.57;154073;1094;103202;-75
2021/06/01 02:36:29;;;;;;;10.67;7.40;;;;;;;8.04;55.37;100441.36;153950;1101;103294;-76
2021/06/01 02:39:33;;;;;;;10.27;6.83;;;;;;;8.11;55.75;100443.48;153987;1095;103235;-75
2021/06/01 02:42:39;;;;;;;11.20;7.10;;;;;;;8.15;55.04;100439.58;154048;1093;103205;-75
2021/06/01 02:45:44;;;;;;;12.20;7.17;;;;;;;8.19;55.70;100436.52;154012;1101;103193;-77
2021/06/01 02:48:49;;;;;;;8.50;5.80;;;;;;;8.23;56.12;100432.61;154048;1101;103136;-76
2021/06/01 02:51:55;;;;;;;9.27;6.00;;;;;;;8.34;55.43;100436.17;153974;1093;103273;-76
2021/06/01 02:55:00;;;;;;;8.20;5.60;;;;;;;8.44;56.15;100432.58;154077;1101;103173;-77
2021/06/01 02:58:07;;;;;;;12.33;6.87;;;;;;;8.55;55.76;100428.98;153969;1101;103213;-76
2021/06/01 03:01:14;;;;;;;14.67;10.13;;;;;;;8.62;55.79;100423.95;153999;1101;103147;-76
2021/06/01 03:04:18;;;;;;;12.63;8.00;;;;;;;8.71;55.82;100430.28;154017;1101;103106;-75
2021/06/01 03:07:22;;;;;;;16.20;9.03;;;;;;;8.77;56.00;100430.56;154104;1101;103272;-76
2021/06/01 03:10:26;;;;;;;11.77;7.03;;;;;;;8.86;55.83;100426.25;154018;1093;103593;-76
2021/06/01 03:13:30;;;;;;;9.47;6.37;;;;;;;8.92;56.61;100422.20;154081;1093;103147;-75
2021/06/01 03:16:34;;;;;;;8.30;5.90;;;;;;;8.94;56.67;100426.39;154087;1101;103113;-76
2021/06/01 03:19:37;;;;;;;7.93;5.53;;;;;;;9.00;56.46;100420.52;153952;1094;103228;-76
2021/06/01 03:22:41;;;;;;;9.00;5.43;;;;;;;9.09;56.67;100418.02;153981;1094;103190;-78
2021/06/01 03:25:45;;;;;;;7.97;5.60;;;;;;;9.12;56.24;100421.25;153997;1096;103203;-77
2021/06/01 03:28:48;;;;;;;8.23;5.57;;;;;;;9.21;56.83;100416.89;153927;1101;103125;-76
2021/06/01 03:31:52;;;;;;;8.13;5.53;;;;;;;9.30;56.82;100418.72;153954;1093;103198;-76
2021/06/01 03:34:56;;;;;;;8.13;5.43;;;;;;;9.39;56.89;100423.20;153956;1093;103126;-76
2021/06/01 03:38:00;;;;;;;7.80;5.30;;;;;;;9.46;57.03;100414.64;153945;1101;103259;-77
2021/06/01 03:41:05;;;;;;;7.57;5.30;;;;;;;9.53;57.14;100421.92;153971;1101;103149;-76
2021/06/01 03:44:09;;;;;;;7.50;5.63;;;;;;;9.65;57.17;100419.94;153980;1094;103238;-76
2021/06/01 03:47:13;;;;;;;8.43;5.57;;;;;;;9.77;57.07;100423.27;153971;1093;103195;-76
2021/06/01 03:50:17;;;;;;;6.40;4.73;;;;;;;9.90;57.08;100430.97;153987;1093;103192;-76
2021/06/01 03:53:21;;;;;;;8.30;4.95;;;;;;;10.08;57.18;100425.71;153934;1101;103221;-79
2021/06/01 03:56:25;;;;;;;8.17;5.40;;;;;;;10.31;57.86;100426.22;154008;1093;103259;-76
2021/06/01 03:59:28;;;;;;;9.10;5.70;;;;;;;10.52;57.09;100424.14;153987;1101;103190;-78
2021/06/01 04:02:32;;;;;;;7.23;5.40;;;;;;;10.75;57.30;100419.23;153970;1094;103474;-78
2021/06/01 04:05:36;;;;;;;8.90;6.10;;;;;;;10.96;57.52;100421.62;153990;1101;103127;-77
2021/06/01 04:08:40;;;;;;;8.83;5.83;;;;;;;11.20;57.44;100421.03;153978;1094;103179;-80
2021/06/01 04:11:44;;;;;;;9.53;6.00;;;;;;;11.42;57.47;100407.35;154002;1093;103125;-78
2021/06/01 04:14:47;;;;;;;9.65;5.80;;;;;;;11.62;57.44;100411.50;153979;1101;103111;-77
2021/06/01 04:17:51;;;;;;;8.13;6.10;;;;;;;11.81;57.36;100410.45;153969;1101;103194;-77
2021/06/01 04:20:55;;;;;;;8.50;6.50;;;;;;;12.04;58.08;100410.80;153955;1101;103116;-75
2021/06/01 04:23:58;;;;;;;10.30;6.60;;;;;;;12.43;57.41;100402.27;153946;1101;103384;-74
2021/06/01 04:27:02;;;;;;;9.60;6.63;;;;;;;12.90;57.47;100411.63;153988;1101;103192;-74
2021/06/01 04:30:08;;;;;;;10.87;6.70;;;;;;;13.26;56.98;100411.32;153959;1101;103083;-76
2021/06/01 04:33:12;;;;;;;10.33;6.63;;;;;;;13.61;56.77;100410.19;153983;1101;103228;-74
2021/06/01 04:36:16;;;;;;;11.90;6.50;;;;;;;13.88;56.66;100405.47;153939;1101;103224;-76
2021/06/01 04:39:19;;;;;;;9.10;5.85;;;;;;;14.16;56.26;100413.09;153979;1101;103192;-75
2021/06/01 04:42:23;;;;;;;11.10;6.77;;;;;;;14.32;55.70;100413.05;154006;1101;103192;-76
2021/06/01 04:45:27;;;;;;;8.10;5.90;;;;;;;14.38;56.08;100414.20;153920;1101;103139;-74
2021/06/01 04:48:31;;;;;;;8.77;5.70;;;;;;;14.45;55.92;100416.02;153958;1093;103246;-76
2021/06/01 04:51:35;;;;;;;7.07;5.87;;;;;;;14.57;55.85;100418.32;153946;1101;103110;-76
2021/06/01 04:54:38;;;;;;;8.70;6.17;;;;;;;14.74;55.92;100406.48;153981;1101;103317;-76
2021/06/01 04:57:43;;;;;;;8.50;5.60;;;;;;;14.92;56.02;100409.74;154034;1101;103110;-75
2021/06/01 05:00:46;;;;;;;6.73;5.10;;;;;;;15.15;55.65;100419.67;153967;1096;103659;-77
2021/06/01 05:03:50;;;;;;;8.07;5.80;;;;;;;15.33;55.48;100403.23;153978;1101;103144;-80
2021/06/01 05:06:56;;;;;;;8.27;5.47;;;;;;;15.52;55.66;100404.59;154035;1094;103128;-77
2021/06/01 05:10:01;;;;;;;8.10;5.30;;;;;;;15.73;55.63;100408.44;154001;1101;103180;-74
2021/06/01 05:13:04;;;;;;;7.83;5.07;;;;;;;15.95;55.32;100409.41;153968;1101;103104;-75
2021/06/01 05:16:08;;;;;;;8.80;5.17;;;;;;;16.21;54.89;100412.49;154003;1101;103166;-76
2021/06/01 05:19:12;;;;;;;8.10;4.77;;;;;;;16.35;54.64;100408.11;153996;1093;103244;-73
2021/06/01 05:22:16;;;;;;;7.13;4.80;;;;;;;16.57;55.01;100414.42;153919;1101;103123;-77
2021/06/01 05:25:20;;;;;;;6.83;4.53;;;;;;;16.60;54.46;100413.20;154078;1101;103163;-75
2021/06/01 05:28:24;;;;;;;5.87;4.67;;;;;;;16.55;53.70;100412.91;154089;1101;103478;-77
2021/06/01 05:31:32;;;;;;;7.53;4.90;;;;;;;16.37;54.27;100416.02;153987;1101;103123;-77
2021/06/01 05:34:37;;;;;;;6.20;4.60;;;;;;;16.26;54.12;100417.30;154000;1100;103145;-77
2021/06/01 05:37:40;;;;;;;7.37;4.33;;;;;;;16.12;54.29;100416.30;153991;1101;103114;-78
2021/06/01 05:40:44;;;;;;;9.17;4.40;;;;;;;16.00;53.85;100423.17;153951;1093;103481;-77
2021/06/01 05:43:48;;;;;;;7.53;4.63;;;;;;;15.86;54.08;100424.83;153959;1094;103136;-76
2021/06/01 05:46:51;;;;;;;7.90;4.80;;;;;;;15.77;54.30;100423.23;153982;1101;103234;-76
2021/06/01 05:49:55;;;;;;;6.70;4.13;;;;;;;15.78;54.18;100422.20;153960;1101;103199;-77
2021/06/01 05:52:59;;;;;;;8.50;4.80;;;;;;;15.82;54.16;100426.19;153954;1093;103493;-77
2021/06/01 05:56:04;;;;;;;6.57;4.37;;;;;;;15.82;54.41;100421.66;153957;1101;103310;-77
2021/06/01 05:59:07;;;;;;;8.30;4.97;;;;;;;15.88;54.13;100420.92;154013;1093;103106;-76
2021/06/01 06:02:11;;;;;;;8.43;4.40;;;;;;;15.83;54.39;100423.32;153951;1101;103125;-76
2021/06/01 06:05:16;;;;;;;7.00;4.70;;;;;;;15.91;54.25;100419.70;153970;1101;103164;-77
2021/06/01 06:08:21;;;;;;;7.47;4.70;;;;;;;15.99;54.16;100419.61;153989;1094;103136;-77
2021/06/01 06:11:24;;;;;;;7.80;4.40;;;;;;;16.09;54.12;100417.51;153955;1100;103190;-76
2021/06/01 06:14:28;;;;;;;6.87;4.40;;;;;;;15.97;54.20;100415.45;154018;1093;103125;-76
2021/06/01 06:17:40;;;;;;;7.28;4.78;;;;;;;15.92;53.20;100407.94;153946;1094;103187;-77
2021/06/01 06:20:43;;;;;;;8.93;4.50;;;;;;;15.82;54.08;100410.05;153978;1100;103192;-76
2021/06/01 06:23:47;;;;;;;9.30;4.53;;;;;;;15.78;53.90;100408.74;153977;1093;103170;-77
2021/06/01 06:26:51;;;;;;;8.10;4.80;;;;;;;15.79;53.85;100411.25;153953;1100;103315;-77
2021/06/01 06:29:54;;;;;;;7.00;4.30;;;;;;;15.93;53.97;100419.53;153992;1093;103121;-76
2021/06/01 06:32:58;;;;;;;7.67;4.40;;;;;;;16.09;54.33;100414.81;153987;1100;103143;-77
2021/06/01 06:36:02;;;;;;;5.70;4.30;;;;;;;16.27;54.05;100417.13;153950;1093;103188;-76
2021/06/01 06:39:08;;;;;;;6.80;4.33;;;;;;;16.50;53.85;100418.88;153979;1100;103192;-77
2021/06/01 06:42:12;;;;;;;7.43;4.70;;;;;;;16.67;53.37;100419.50;153976;1101;103372;-77
2021/06/01 06:45:16;;;;;;;8.10;4.43;;;;;;;16.89;53.17;100406.92;154006;1100;103192;-77
2021/06/01 06:48:20;;;;;;;7.27;3.93;;;;;;;17.15;53.33;100406.38;153995;1101;103119;-77
2021/06/01 06:51:26;;;;;;;8.47;4.40;;;;;;;17.34;52.91;100409.44;153960;1100;103147;-77
2021/06/01 06:54:30;;;;;;;6.80;4.50;;;;;;;17.45;52.38;100400.82;153950;1101;103143;-77
2021/06/01 06:57:33;;;;;;;7.77;3.83;;;;;;;17.55;51.93;100390.55;154086;1100;103293;-77
2021/06/01 07:00:37;;;;;;;7.43;4.10;;;;;;;17.71;52.10;100392.12;154111;1101;103211;-78
2021/06/01 07:03:41;;;;;;;9.33;3.60;;;;;;;17.82;52.27;100385.31;153988;1100;103196;-78
2021/06/01 07:06:47;;;;;;;7.23;3.60;;;;;;;17.87;52.29;100382.91;153961;1101;103119;-78
2021/06/01 07:09:51;;;;;;;8.23;3.93;;;;;;;18.04;52.53;100381.55;154036;1101;103198;-77
2021/06/01 07:13:00;;;;;;;6.13;3.80;;;;;;;18.14;51.98;100361.46;153945;1101;103283;-78
2021/06/01 07:16:05;;;;;;;5.87;3.70;;;;;;;18.47;51.33;100383.21;154138;1101;103191;-78
2021/06/01 07:19:08;;;;;;;4.90;3.10;;;;;;;18.62;51.15;100374.95;153955;1101;103135;-77
2021/06/01 07:22:12;;;;;;;4.40;2.90;;;;;;;18.67;50.83;100369.78;154027;1093;103308;-77
2021/06/01 07:25:16;;;;;;;5.93;2.83;;;;;;;18.70;50.70;100371.23;154225;1101;103130;-78
2021/06/01 07:28:19;;;;;;;4.10;2.80;;;;;;;18.67;50.59;100374.34;154012;1101;103226;-80
2021/06/01 07:31:23;;;;;;;3.50;2.70;;;;;;;18.76;50.78;100373.12;154021;1094;103221;-80
2021/06/01 07:34:27;;;;;;;4.57;3.20;;;;;;;18.89;50.59;100369.66;154227;1101;103121;-78
2021/06/01 07:37:31;;;;;;;3.57;2.40;;;;;;;19.09;50.64;100372.38;154040;1101;103135;-78
2021/06/01 07:40:34;;;;;;;3.53;2.60;;;;;;;19.28;50.51;100362.63;154022;1093;103214;-79
2021/06/01 07:43:38;;;;;;;4.25;2.40;;;;;;;19.43;50.50;100365.95;153983;1093;103279;-78
2021/06/01 07:46:42;;;;;;;3.53;2.10;;;;;;;19.59;49.81;100365.54;154022;1093;103122;-77
2021/06/01 07:49:45;;;;;;;4.73;2.40;;;;;;;19.58;49.25;100361.16;154052;1093;103197;-79
2021/06/01 07:52:49;;;;;;;3.90;2.17;;;;;;;19.64;49.72;100364.90;153972;1101;103575;-79
2021/06/01 07:55:53;;;;;;;3.37;2.10;;;;;;;19.74;49.00;100368.03;154079;1100;103306;-80
2021/06/01 07:58:57;;;;;;;4.30;2.40;;;;;;;19.92;49.16;100370.10;153984;1093;103305;-80
2021/06/01 08:02:01;;;;;;;3.55;2.20;;;;;;;20.06;49.10;100376.31;154010;1101;103199;-80
2021/06/01 08:05:06;;;;;;;3.03;2.10;;;;;;;20.17;48.63;100369.41;154358;1093;103125;-80
2021/06/01 08:08:10;;;;;;;2.90;2.00;;;;;;;20.29;48.40;100364.16;154015;1100;103217;-78
2021/06/01 08:11:13;;;;;;;4.23;2.00;;;;;;;20.31;47.59;100370.20;154125;1101;103122;-78
2021/06/01 08:14:17;;;;;;;3.77;2.00;;;;;;;20.40;47.61;100361.61;154067;1093;103266;-82
2021/06/01 08:17:20;;;;;;;3.47;2.07;;;;;;;20.52;47.30;100369.06;154175;1100;103192;-85
2021/06/01 08:20:31;;;;;;;4.25;1.95;;;;;;;20.64;47.53;100359.22;154112;1100;103311;-81
2021/06/01 08:23:35;;;;;;;3.93;2.00;;;;;;;20.71;47.39;100368.16;154312;1100;103106;-81
2021/06/01 08:26:39;;;;;;;2.80;2.00;;;;;;;20.74;47.33;100362.28;154191;1093;103195;-81
2021/06/01 08:29:42;;;;;;;3.33;2.00;;;;;;;20.74;47.10;100361.46;154115;1101;103238;-84
2021/06/01 08:32:46;;;;;;;2.30;1.80;;;;;;;20.76;46.71;100365.61;154639;1100;103140;-81
2021/06/01 08:35:50;;;;;;;3.33;1.83;;;;;;;20.74;44.90;100364.17;154641;1101;103192;-81
2021/06/01 08:38:54;;;;;;;3.67;1.90;;;;;;;20.67;45.06;100363.37;154537;1093;103193;-80
2021/06/01 08:41:58;;;;;;;3.07;1.87;;;;;;;20.54;44.37;100369.68;154323;1100;103263;-81
2021/06/01 08:45:06;;;;;;;3.40;2.40;;;;;;;20.40;44.46;100366.20;154575;1093;103239;-81
2021/06/01 08:48:10;;;;;;;3.30;2.00;;;;;;;20.40;44.78;100358.89;154403;1094;103155;-82
2021/06/01 08:51:19;;;;;;;6.50;2.00;;;;;;;20.67;44.65;100356.09;154343;1100;103240;-79
2021/06/01 08:54:23;;;;;;;3.30;2.00;;;;;;;20.77;42.63;100355.61;153950;1100;103107;-76
2021/06/01 08:57:27;;;;;;;3.73;1.90;;;;;;;20.60;43.00;100349.86;153953;1100;103156;-78
2021/06/01 09:00:31;;;;;;;4.40;2.00;;;;;;;20.75;44.45;100357.72;154022;1100;103192;-77
2021/06/01 09:03:36;;;;;;;2.53;1.73;;;;;;;21.03;43.88;100354.59;153986;1100;103192;-77
2021/06/01 09:06:42;;;;;;;3.20;2.00;;;;;;;21.28;43.83;100351.07;154012;1100;103193;-79
2021/06/01 09:23:52;;;;;;;2.55;1.90;;;;;;;22.28;42.35;100339.24;154014;1100;103238;-77
2021/06/01 09:27:00;;;;;;;;;;;;;;;22.39;42.43;100340.38;154033;1100;103246;-78
2021/06/01 09:30:05;;;;;;;4.70;1.97;;;;;;;22.40;41.63;100337.40;154100;1100;103116;-78
2021/06/01 09:33:10;;;;;;;4.83;1.80;;;;;;;22.33;42.04;100337.50;154022;1093;103563;-78
2021/06/01 09:36:22;;;;;;;2.87;1.60;;;;;;;22.27;41.83;100337.59;154028;1093;103145;-77
2021/06/01 09:39:26;;;;;;;4.43;2.10;;;;;;;22.25;42.07;100336.97;154018;1093;103112;-78
2021/06/01 09:42:32;;;;;;;2.30;1.70;;;;;;;22.25;42.09;100340.54;153938;1100;103218;-78
2021/06/01 09:45:36;;;;;;;2.50;1.90;;;;;;;22.29;41.54;100330.05;153967;1100;103043;-78
2021/06/01 09:48:39;;;;;;;4.10;2.10;;;;;;;22.27;41.75;100332.16;153944;1101;103178;-78
2021/06/01 09:51:47;;;;;;;3.57;1.90;;;;;;;22.29;41.47;100330.86;153963;1093;103138;-78
2021/06/01 09:54:57;;;;;;;2.83;1.73;;;;;;;22.40;40.94;100323.80;153979;1094;103133;-78
2021/06/01 09:58:03;;;;;;;2.20;1.80;;;;;;;22.55;41.22;100316.06;153956;1100;103233;-78
2021/06/01 10:01:07;;;;;;;2.07;1.50;;;;;;;22.84;40.93;100315.45;153995;1100;103197;-78
2021/06/01 10:04:21;;;;;;;3.35;1.70;;;;;;;23.04;40.58;100313.30;153992;1093;103308;-78
2021/06/01 10:07:29;;;;;;;3.47;1.70;;;;;;;23.02;39.76;100301.78;153992;1101;103135;-77
2021/06/01 10:10:33;;;;;;;2.80;1.80;;;;;;;23.01;39.96;100305.55;153977;1100;103113;-78
2021/06/01 10:13:38;;;;;;;3.85;1.90;;;;;;;23.08;40.16;100303.59;153947;1101;103192;-78
2021/06/01 10:16:42;;;;;;;4.30;2.00;;;;;;;23.10;40.38;100301.47;154024;1093;103160;-78
2021/06/01 10:19:45;;;;;;;2.93;2.30;;;;;;;23.19;39.99;100306.55;154000;1100;103197;-78
2021/06/01 10:22:50;;;;;;;3.27;2.00;;;;;;;23.21;39.74;100309.87;153987;1101;103197;-78
2021/06/01 10:25:53;;;;;;;7.73;4.30;;;;;;;23.21;39.29;100307.15;153992;1100;103197;-77
2021/06/01 10:28:57;;;;;;;6.80;4.00;;;;;;;23.08;39.83;100311.76;154002;1100;103670;-78
2021/06/01 10:32:01;;;;;;;3.87;2.40;;;;;;;23.02;39.42;100312.67;153975;1101;103183;-78
2021/06/01 10:35:11;;;;;;;7.20;1.87;;;;;;;22.94;39.65;100316.56;153939;1100;103264;-78
2021/06/01 10:48:47;;;;;;;3.40;2.40;;;;;;;22.92;39.12;100301.52;153992;1100;103227;-78
2021/06/01 10:52:10;;;;;;;2.70;1.70;;;;;;;22.99;39.16;100295.98;154003;1101;103580;-78
2021/06/01 10:55:14;;;;;;;3.60;2.10;;;;;;;23.01;39.08;100296.57;154083;1100;103222;-78
2021/06/01 10:58:20;;;;;;;4.03;2.13;;;;;;;23.16;38.40;100296.16;153952;1100;103567;-78
2021/06/01 11:05:03;;;;;;;3.47;2.30;;;;;;;23.22;38.65;100295.21;153983;1100;103148;-78
2021/06/01 11:08:12;;;;;;;3.27;2.57;;;;;;;23.30;38.37;100297.57;153994;1093;103257;-78
2021/06/01 11:11:32;;;;;;;2.90;2.00;;;;;;;23.28;38.28;100299.70;154014;1100;103125;-77
2021/06/01 11:14:36;;;;;;;3.33;2.10;;;;;;;23.31;38.03;100300.06;153948;1093;103190;-78
2021/06/01 11:17:41;;;;;;;3.67;1.90;;;;;;;23.23;37.48;100292.26;153943;1094;103189;-78
2021/06/01 11:21:17;;;;;;;3.03;2.13;;;;;;;23.17;36.88;100293.17;153930;1100;103252;-78
2021/06/01 11:34:27;;;;;;;3.90;2.60;;;;;;;22.74;37.19;100294.27;153926;1100;103195;-78
2021/06/01 11:37:38;;;;;;;3.67;2.50;;;;;;;22.82;37.36;100295.81;153956;1093;103192;-78
2021/06/01 11:44:24;;;;;;;2.60;2.03;;;;;;;22.75;36.84;100293.22;153981;1101;103395;-77
2021/06/01 11:47:30;;;;;;;2.93;2.13;;;;;;;22.84;37.06;100290.97;154054;1101;103125;-77
2021/06/01 11:53:54;;;;;;;3.80;2.10;;;;;;;23.18;36.22;100288.58;153966;1093;103233;-78
2021/06/01 11:57:07;;;;;;;3.10;2.33;;;;;;;23.28;36.60;100284.19;153967;1101;103487;-78
2021/06/01 12:03:56;;;;;;;2.85;2.40;;;;;;;23.40;36.25;100270.57;154033;1101;103112;-77
2021/06/01 12:14:02;;;;;;;2.97;2.27;;;;;;;23.22;36.45;100285.14;154026;1101;103117;-77
2021/06/01 12:17:14;;;;;;;4.53;2.20;;;;;;;23.09;36.77;100282.64;154031;1101;103101;-78
2021/06/01 12:20:18;;;;;;;3.07;2.30;;;;;;;22.85;36.56;100281.77;154005;1093;103218;-78
2021/06/01 12:23:34;;;;;;;6.17;3.00;;;;;;;22.64;36.53;100288.56;153974;1101;103230;-79
2021/06/01 12:26:45;;;;;;;3.20;2.30;;;;;;;22.49;36.47;100278.92;154032;1101;103128;-79
2021/06/01 12:33:11;;;;;;;4.00;2.60;;;;;;;22.25;36.51;100286.17;154096;1093;103184;-79
2021/06/01 12:43:03;;;;;;;3.30;2.27;;;;;;;21.82;36.48;100280.81;153952;1101;103222;-80
2021/06/01 12:46:19;;;;;;;3.00;2.10;;;;;;;21.78;36.40;100277.72;154018;1101;103229;-79
2021/06/01 13:20:22;;;;;;;4.30;2.30;;;;;;;22.06;36.69;100276.37;154450;1101;103298;-84
2021/06/01 13:30:38;;;;;;;3.20;2.37;;;;;;;21.98;36.84;100268.50;154764;1101;103400;-81
2021/06/01 13:37:53;;;;;;;2.73;2.27;;;;;;;21.99;36.77;100279.15;154916;1101;103477;-81
2021/06/01 13:48:07;;;;;;;3.77;2.70;;;;;;;22.22;37.05;100269.46;154741;1100;103117;-78
2021/06/01 13:51:31;;;;;;;4.60;2.33;;;;;;;22.28;36.39;100269.39;154114;1101;103509;-76
2021/06/01 14:01:24;;;;;;;4.27;2.40;;;;;;;22.39;36.45;100269.69;154416;1101;103118;-78
2021/06/01 14:21:36;;;;;;;4.27;2.43;;;;;;;22.76;36.89;100280.44;154495;1093;103122;-78
2021/06/01 14:31:27;;;;;;;4.30;3.33;;;;;;;22.54;36.04;100286.41;154191;1093;103117;-77
2021/06/01 14:38:12;;;;;;;4.53;2.47;;;;;;;22.33;36.77;100291.28;154137;1101;103257;-77
2021/06/01 14:55:24;;;;;;;4.00;2.40;;;;;;;21.75;36.51;100286.34;153932;1093;103213;-80
2021/06/01 15:09:35;;;;;;;2.83;2.20;;;;;;;21.38;36.78;100280.81;154060;1096;103182;-80
2021/06/01 15:32:55;;;;;;;5.73;2.30;;;;;;;20.99;37.02;100272.81;153943;1101;103192;-80
2021/06/01 15:49:30;;;;;;;3.30;2.25;;;;;;;20.78;37.66;100276.76;154043;1101;103244;-79
2021/06/01 15:53:15;;;;;;;5.13;2.40;;;;;;;20.77;37.72;100285.11;153998;1096;103600;-80
2021/06/01 16:13:35;;;;;;;4.53;2.47;;;;;;;20.53;38.50;100283.97;154124;1101;103157;-81
2021/06/01 16:23:32;;;;;;;3.63;2.43;;;;;;;20.46;38.68;100284.02;154037;1093;103195;-79
2021/06/01 16:30:10;;;;;;;4.93;2.70;;;;;;;20.42;38.75;100288.22;153986;1101;103215;-78
2021/06/01 16:33:26;;;;;;;5.57;2.90;;;;;;;20.40;39.28;100288.43;154018;1093;103522;-79
2021/06/01 16:43:32;;;;;;;6.13;4.03;;;;;;;20.36;39.29;100291.77;153930;1101;103260;-79
2021/06/01 17:03:50;;;;;;;5.53;3.00;;;;;;;20.00;39.85;100304.86;154025;1101;103126;-80
2021/06/01 17:07:04;;;;;;;5.43;2.90;;;;;;;19.98;39.82;100301.53;154049;1093;103149;-79
2021/06/01 17:13:32;;;;;;;5.53;2.77;;;;;;;19.89;40.23;100305.52;153964;1093;103120;-80
2021/06/01 17:16:41;;;;;;;4.17;2.90;;;;;;;19.84;40.16;100301.78;153940;1100;103263;-79
2021/06/01 17:20:04;;;;;;;4.23;3.30;;;;;;;19.77;40.25;100305.34;153987;1100;103196;-79
2021/06/01 17:36:35;;;;;;;6.23;3.70;;;;;;;19.43;40.96;100317.24;154065;1093;103573;-78
2021/06/01 17:39:39;;;;;;;7.40;3.70;;;;;;;19.36;41.21;100321.82;154244;1093;103100;-85
2021/06/01 17:42:50;;;;;;;7.37;3.47;;;;;;;19.31;41.33;100327.05;153933;1093;103120;-77
2021/06/01 17:45:55;;;;;;;5.80;3.60;;;;;;;19.27;41.43;100329.33;153987;1093;103153;-79
2021/06/01 17:49:01;;;;;;;5.63;3.27;;;;;;;19.21;41.63;100335.58;154041;1093;103279;-79
2021/06/01 17:52:05;;;;;;;5.43;3.53;;;;;;;19.13;41.81;100323.09;154016;1093;103215;-81
2021/06/01 17:55:15;;;;;;;5.40;3.57;;;;;;;19.05;42.05;100335.98;154083;1093;103484;-81
2021/06/01 17:58:38;;;;;;;5.63;3.57;;;;;;;18.98;42.20;100333.28;154160;1093;103184;-76
2021/06/01 18:01:45;;;;;;;5.73;4.00;;;;;;;18.92;42.48;100342.19;154570;1101;103128;-80
2021/06/01 18:04:50;;;;;;;7.20;3.70;;;;;;;18.84;42.79;100340.52;154137;1101;103304;-81
2021/06/01 18:07:58;;;;;;;7.40;3.83;;;;;;;18.79;42.94;100342.98;154140;1100;103197;-76
2021/06/01 18:42:06;;;;;;;7.87;4.70;;;;;;;17.94;45.32;100378.39;153977;1093;103097;-79
2021/06/01 19:02:15;;;;;;;10.03;5.60;;;;;;;17.50;46.85;100392.16;154174;1101;103136;-81
2021/06/01 19:26:04;;;;;;;;;;;;;;;17.10;48.43;100427.67;154164;1093;103141;-77
2021/06/01 19:49:57;;;;;;;13.33;8.23;;;;;;;16.76;49.32;100447.98;154147;1100;103132;-80
2021/06/01 19:53:02;;;;;;;13.63;8.40;;;;;;;16.73;49.03;100451.08;154267;1100;103195;-78
2021/06/01 19:56:07;;;;;;;15.17;8.90;;;;;;;16.70;49.08;100451.45;154141;1093;103179;-79
2021/06/01 19:59:11;;;;;;;11.60;9.13;;;;;;;16.67;49.53;100451.84;154259;1094;103200;-80
2021/06/01 20:02:20;;;;;;;13.37;8.87;;;;;;;16.61;49.61;100455.26;154952;1100;103203;-81
2021/06/01 20:05:25;;;;;;;12.57;8.70;;;;;;;16.55;49.77;100454.18;154773;1100;103199;-80
2021/06/01 20:08:29;;;;;;;14.60;8.50;;;;;;;16.53;49.80;100460.76;154530;1093;103193;-82
2021/06/01 20:11:34;;;;;;;13.13;8.90;;;;;;;16.50;49.83;100459.28;154718;1093;103129;-81